sensor_id;sensor_type;location;lat;lon;timestamp;temperature;humidity
2647;DHT22;1333;50.958;6.770;2022-11-14T00:00:07;4.70;99.90
2647;DHT22;1333;50.958;6.770;2022-11-14T00:02:33;4.70;99.90
2647;DHT22;1333;50.958;6.770;2022-11-14T00:04:59;4.70;99.90
2647;DHT22;1333;50.958;6.770;2022-11-14T00:07:24;4.60;99.90
2647;DHT22;1333;50.958;6.770;2022-11-14T00:09:50;4.60;99.90
2647;DHT22;1333;50.958;6.770;2022-11-14T00:12:15;4.60;99.90
2647;DHT22;1333;50.958;6.770;2022-11-14T00:14:41;4.50;99.90
2647;DHT22;1333;50.958;6.770;2022-11-14T00:17:06;4.50;99.90
2647;DHT22;1333;50.958;6.770;2022-11-14T00:19:32;4.40;99.90
2647;DHT22;1333;50.958;6.770;2022-11-14T00:21:58;4.40;99.90
2647;DHT22;1333;50.958;6.770;2022-11-14T00:24:24;4.40;99.90
2647;DHT22;1333;50.958;6.770;2022-11-14T00:26:50;4.40;99.90
2647;DHT22;1333;50.958;6.770;2022-11-14T00:29:15;4.40;99.90
2647;DHT22;1333;50.958;6.770;2022-11-14T00:31:41;4.40;99.90
2647;DHT22;1333;50.958;6.770;2022-11-14T00:34:07;4.50;99.90
2647;DHT22;1333;50.958;6.770;2022-11-14T00:36:33;4.50;99.90
2647;DHT22;1333;50.958;6.770;2022-11-14T00:38:59;4.50;99.90
2647;DHT22;1333;50.958;6.770;2022-11-14T00:41:24;4.60;99.90
2647;DHT22;1333;50.958;6.770;2022-11-14T00:43:50;4.60;99.90
2647;DHT22;1333;50.958;6.770;2022-11-14T00:46:16;4.60;99.90
2647;DHT22;1333;50.958;6.770;2022-11-14T00:48:41;4.60;99.90
2647;DHT22;1333;50.958;6.770;2022-11-14T00:51:07;4.60;99.90
2647;DHT22;1333;50.958;6.770;2022-11-14T00:53:33;4.50;99.90
2647;DHT22;1333;50.958;6.770;2022-11-14T00:55:58;4.50;99.90
2647;DHT22;1333;50.958;6.770;2022-11-14T00:58:24;4.50;99.90
2647;DHT22;1333;50.958;6.770;2022-11-14T01:00:50;4.50;99.90
2647;DHT22;1333;50.958;6.770;2022-11-14T01:03:16;4.50;99.90
2647;DHT22;1333;50.958;6.770;2022-11-14T01:05:44;4.40;99.90
2647;DHT22;1333;50.958;6.770;2022-11-14T01:08:11;4.40;99.90
2647;DHT22;1333;50.958;6.770;2022-11-14T01:10:39;4.40;99.90
2647;DHT22;1333;50.958;6.770;2022-11-14T01:13:05;4.40;99.90
2647;DHT22;1333;50.958;6.770;2022-11-14T01:15:30;4.40;99.90
2647;DHT22;1333;50.958;6.770;2022-11-14T01:17:56;4.30;99.90
2647;DHT22;1333;50.958;6.770;2022-11-14T01:20:21;4.30;99.90
2647;DHT22;1333;50.958;6.770;2022-11-14T01:22:47;4.30;99.90
2647;DHT22;1333;50.958;6.770;2022-11-14T01:25:12;4.30;99.90
2647;DHT22;1333;50.958;6.770;2022-11-14T01:27:38;4.30;99.90
2647;DHT22;1333;50.958;6.770;2022-11-14T01:30:04;4.30;99.90
2647;DHT22;1333;50.958;6.770;2022-11-14T01:32:29;4.40;99.90
2647;DHT22;1333;50.958;6.770;2022-11-14T01:34:55;4.40;99.90
2647;DHT22;1333;50.958;6.770;2022-11-14T01:37:20;4.40;99.90
2647;DHT22;1333;50.958;6.770;2022-11-14T01:39:46;4.40;99.90
2647;DHT22;1333;50.958;6.770;2022-11-14T01:42:12;4.40;99.90
2647;DHT22;1333;50.958;6.770;2022-11-14T01:47:10;4.40;99.90
2647;DHT22;1333;50.958;6.770;2022-11-14T01:49:43;4.40;99.90
2647;DHT22;1333;50.958;6.770;2022-11-14T01:54:44;4.30;99.90
2647;DHT22;1333;50.958;6.770;2022-11-14T01:57:11;4.40;99.90
2647;DHT22;1333;50.958;6.770;2022-11-14T01:59:46;4.50;99.90
2647;DHT22;1333;50.958;6.770;2022-11-14T02:02:17;4.40;99.90
2647;DHT22;1333;50.958;6.770;2022-11-14T02:04:46;4.40;99.90
2647;DHT22;1333;50.958;6.770;2022-11-14T02:07:14;4.40;99.90
2647;DHT22;1333;50.958;6.770;2022-11-14T02:09:43;4.30;99.90
2647;DHT22;1333;50.958;6.770;2022-11-14T02:12:12;4.30;99.90
2647;DHT22;1333;50.958;6.770;2022-11-14T02:14:39;4.30;99.90
2647;DHT22;1333;50.958;6.770;2022-11-14T02:17:05;4.40;99.90
2647;DHT22;1333;50.958;6.770;2022-11-14T02:19:48;4.50;99.90
2647;DHT22;1333;50.958;6.770;2022-11-14T02:22:15;4.50;99.90
2647;DHT22;1333;50.958;6.770;2022-11-14T02:24:40;4.60;99.90
2647;DHT22;1333;50.958;6.770;2022-11-14T02:27:07;4.60;99.90
2647;DHT22;1333;50.958;6.770;2022-11-14T02:29:34;4.60;99.90
2647;DHT22;1333;50.958;6.770;2022-11-14T02:32:00;4.60;99.90
2647;DHT22;1333;50.958;6.770;2022-11-14T02:34:26;4.60;99.90
2647;DHT22;1333;50.958;6.770;2022-11-14T02:36:51;4.60;99.90
2647;DHT22;1333;50.958;6.770;2022-11-14T02:39:17;4.50;99.90
2647;DHT22;1333;50.958;6.770;2022-11-14T02:41:42;4.40;99.90
2647;DHT22;1333;50.958;6.770;2022-11-14T02:44:08;4.40;99.90
2647;DHT22;1333;50.958;6.770;2022-11-14T02:46:34;4.30;99.90
2647;DHT22;1333;50.958;6.770;2022-11-14T02:48:59;4.40;99.90
2647;DHT22;1333;50.958;6.770;2022-11-14T02:51:25;4.40;99.90
2647;DHT22;1333;50.958;6.770;2022-11-14T02:53:51;4.40;99.90
2647;DHT22;1333;50.958;6.770;2022-11-14T02:56:16;4.30;99.90
2647;DHT22;1333;50.958;6.770;2022-11-14T02:58:42;4.30;99.90
2647;DHT22;1333;50.958;6.770;2022-11-14T03:01:08;4.30;99.90
2647;DHT22;1333;50.958;6.770;2022-11-14T03:03:33;4.30;99.90
2647;DHT22;1333;50.958;6.770;2022-11-14T03:06:00;4.30;99.90
2647;DHT22;1333;50.958;6.770;2022-11-14T03:08:26;4.30;99.90
2647;DHT22;1333;50.958;6.770;2022-11-14T03:10:52;4.20;99.90
2647;DHT22;1333;50.958;6.770;2022-11-14T03:13:17;4.10;99.90
2647;DHT22;1333;50.958;6.770;2022-11-14T03:15:43;4.10;99.90
2647;DHT22;1333;50.958;6.770;2022-11-14T03:18:08;4.00;99.90
2647;DHT22;1333;50.958;6.770;2022-11-14T03:20:34;4.00;99.90
2647;DHT22;1333;50.958;6.770;2022-11-14T03:22:59;4.00;99.90
2647;DHT22;1333;50.958;6.770;2022-11-14T03:25:25;4.10;99.90
2647;DHT22;1333;50.958;6.770;2022-11-14T03:27:51;4.00;99.90
2647;DHT22;1333;50.958;6.770;2022-11-14T03:30:16;4.00;99.90
2647;DHT22;1333;50.958;6.770;2022-11-14T03:32:42;4.00;99.90
2647;DHT22;1333;50.958;6.770;2022-11-14T03:35:08;4.00;99.90
2647;DHT22;1333;50.958;6.770;2022-11-14T03:37:34;3.90;99.90
2647;DHT22;1333;50.958;6.770;2022-11-14T03:40:00;3.90;99.90
2647;DHT22;1333;50.958;6.770;2022-11-14T03:42:25;3.90;99.90
2647;DHT22;1333;50.958;6.770;2022-11-14T03:44:51;3.90;99.90
2647;DHT22;1333;50.958;6.770;2022-11-14T03:47:16;3.90;99.90
2647;DHT22;1333;50.958;6.770;2022-11-14T03:49:42;3.90;99.90
2647;DHT22;1333;50.958;6.770;2022-11-14T03:52:10;3.90;99.90
2647;DHT22;1333;50.958;6.770;2022-11-14T03:54:35;3.80;99.90
2647;DHT22;1333;50.958;6.770;2022-11-14T03:57:01;3.80;99.90
2647;DHT22;1333;50.958;6.770;2022-11-14T03:59:26;3.80;99.90
2647;DHT22;1333;50.958;6.770;2022-11-14T04:01:52;3.90;99.90
2647;DHT22;1333;50.958;6.770;2022-11-14T04:04:17;3.80;99.90
2647;DHT22;1333;50.958;6.770;2022-11-14T04:06:43;3.80;99.90
2647;DHT22;1333;50.958;6.770;2022-11-14T04:09:09;3.80;99.90
2647;DHT22;1333;50.958;6.770;2022-11-14T04:11:35;3.70;99.90
2647;DHT22;1333;50.958;6.770;2022-11-14T04:14:00;3.70;99.90
2647;DHT22;1333;50.958;6.770;2022-11-14T04:16:26;3.70;99.90
2647;DHT22;1333;50.958;6.770;2022-11-14T04:18:51;3.70;99.90
2647;DHT22;1333;50.958;6.770;2022-11-14T04:21:17;3.70;99.90
2647;DHT22;1333;50.958;6.770;2022-11-14T04:23:42;3.70;99.90
2647;DHT22;1333;50.958;6.770;2022-11-14T04:26:08;3.80;99.90
2647;DHT22;1333;50.958;6.770;2022-11-14T04:28:33;3.70;99.90
2647;DHT22;1333;50.958;6.770;2022-11-14T04:30:59;3.70;99.90
2647;DHT22;1333;50.958;6.770;2022-11-14T04:33:25;3.70;99.90
2647;DHT22;1333;50.958;6.770;2022-11-14T04:35:50;3.70;99.90
2647;DHT22;1333;50.958;6.770;2022-11-14T04:38:16;3.70;99.90
2647;DHT22;1333;50.958;6.770;2022-11-14T04:40:50;3.60;99.90
2647;DHT22;1333;50.958;6.770;2022-11-14T04:43:17;3.70;99.90
2647;DHT22;1333;50.958;6.770;2022-11-14T04:45:42;3.70;99.90
2647;DHT22;1333;50.958;6.770;2022-11-14T04:48:08;3.70;99.90
2647;DHT22;1333;50.958;6.770;2022-11-14T04:50:33;3.70;99.90
2647;DHT22;1333;50.958;6.770;2022-11-14T04:52:59;3.60;99.90
2647;DHT22;1333;50.958;6.770;2022-11-14T04:55:24;3.60;99.90
2647;DHT22;1333;50.958;6.770;2022-11-14T04:57:54;3.60;99.90
2647;DHT22;1333;50.958;6.770;2022-11-14T05:00:21;3.60;99.90
2647;DHT22;1333;50.958;6.770;2022-11-14T05:02:46;3.50;99.90
2647;DHT22;1333;50.958;6.770;2022-11-14T05:05:12;3.50;99.90
2647;DHT22;1333;50.958;6.770;2022-11-14T05:07:37;3.50;99.90
2647;DHT22;1333;50.958;6.770;2022-11-14T05:10:04;3.50;99.90
2647;DHT22;1333;50.958;6.770;2022-11-14T05:12:29;3.60;99.90
2647;DHT22;1333;50.958;6.770;2022-11-14T05:14:55;3.60;99.90
2647;DHT22;1333;50.958;6.770;2022-11-14T05:17:21;3.60;99.90
2647;DHT22;1333;50.958;6.770;2022-11-14T05:19:46;3.60;99.90
2647;DHT22;1333;50.958;6.770;2022-11-14T05:22:12;3.60;99.90
2647;DHT22;1333;50.958;6.770;2022-11-14T05:24:40;3.60;99.90
2647;DHT22;1333;50.958;6.770;2022-11-14T05:27:05;3.60;99.90
2647;DHT22;1333;50.958;6.770;2022-11-14T05:29:31;3.60;99.90
2647;DHT22;1333;50.958;6.770;2022-11-14T05:31:57;3.50;99.90
2647;DHT22;1333;50.958;6.770;2022-11-14T05:34:23;3.60;99.90
2647;DHT22;1333;50.958;6.770;2022-11-14T05:36:48;3.60;99.90
2647;DHT22;1333;50.958;6.770;2022-11-14T05:39:15;3.60;99.90
2647;DHT22;1333;50.958;6.770;2022-11-14T05:41:40;3.60;99.90
2647;DHT22;1333;50.958;6.770;2022-11-14T05:44:08;3.60;99.90
2647;DHT22;1333;50.958;6.770;2022-11-14T05:46:34;3.60;99.90
2647;DHT22;1333;50.958;6.770;2022-11-14T05:49:00;3.60;99.90
2647;DHT22;1333;50.958;6.770;2022-11-14T05:51:25;3.60;99.90
2647;DHT22;1333;50.958;6.770;2022-11-14T05:53:51;3.50;99.90
2647;DHT22;1333;50.958;6.770;2022-11-14T05:56:16;3.50;99.90
2647;DHT22;1333;50.958;6.770;2022-11-14T05:58:42;3.50;99.90
2647;DHT22;1333;50.958;6.770;2022-11-14T06:01:11;3.40;99.90
2647;DHT22;1333;50.958;6.770;2022-11-14T06:03:43;3.40;99.90
2647;DHT22;1333;50.958;6.770;2022-11-14T06:06:12;3.40;99.90
2647;DHT22;1333;50.958;6.770;2022-11-14T06:08:38;3.40;99.90
2647;DHT22;1333;50.958;6.770;2022-11-14T06:11:06;3.40;99.90
2647;DHT22;1333;50.958;6.770;2022-11-14T06:13:33;3.40;99.90
2647;DHT22;1333;50.958;6.770;2022-11-14T06:16:04;3.30;99.90
2647;DHT22;1333;50.958;6.770;2022-11-14T06:18:30;3.30;99.90
2647;DHT22;1333;50.958;6.770;2022-11-14T06:21:02;3.20;99.90
2647;DHT22;1333;50.958;6.770;2022-11-14T06:23:28;3.30;99.90
2647;DHT22;1333;50.958;6.770;2022-11-14T06:25:58;3.30;99.90
2647;DHT22;1333;50.958;6.770;2022-11-14T06:28:24;3.30;99.90
2647;DHT22;1333;50.958;6.770;2022-11-14T06:30:50;3.30;99.90
2647;DHT22;1333;50.958;6.770;2022-11-14T06:33:15;3.20;99.90
2647;DHT22;1333;50.958;6.770;2022-11-14T06:35:41;3.20;99.90
2647;DHT22;1333;50.958;6.770;2022-11-14T06:38:06;3.10;99.90
2647;DHT22;1333;50.958;6.770;2022-11-14T06:40:32;3.10;99.90
2647;DHT22;1333;50.958;6.770;2022-11-14T06:42:57;3.00;99.90
2647;DHT22;1333;50.958;6.770;2022-11-14T06:45:23;3.00;99.90
2647;DHT22;1333;50.958;6.770;2022-11-14T06:47:48;3.00;99.90
2647;DHT22;1333;50.958;6.770;2022-11-14T06:50:14;3.00;99.90
2647;DHT22;1333;50.958;6.770;2022-11-14T06:52:39;3.00;99.90
2647;DHT22;1333;50.958;6.770;2022-11-14T06:55:05;3.00;99.90
2647;DHT22;1333;50.958;6.770;2022-11-14T06:57:31;3.00;99.90
2647;DHT22;1333;50.958;6.770;2022-11-14T06:59:56;3.10;99.90
2647;DHT22;1333;50.958;6.770;2022-11-14T07:02:22;3.10;99.90
2647;DHT22;1333;50.958;6.770;2022-11-14T07:04:48;3.20;99.90
2647;DHT22;1333;50.958;6.770;2022-11-14T07:07:13;3.30;99.90
2647;DHT22;1333;50.958;6.770;2022-11-14T07:09:39;3.40;99.90
2647;DHT22;1333;50.958;6.770;2022-11-14T07:12:04;3.50;99.90
2647;DHT22;1333;50.958;6.770;2022-11-14T07:14:30;3.60;99.90
2647;DHT22;1333;50.958;6.770;2022-11-14T07:16:56;3.70;99.90
2647;DHT22;1333;50.958;6.770;2022-11-14T07:19:22;3.80;99.90
2647;DHT22;1333;50.958;6.770;2022-11-14T07:21:47;4.00;99.90
2647;DHT22;1333;50.958;6.770;2022-11-14T07:24:13;4.10;99.90
2647;DHT22;1333;50.958;6.770;2022-11-14T07:26:39;4.20;99.90
2647;DHT22;1333;50.958;6.770;2022-11-14T07:29:04;4.30;99.90
2647;DHT22;1333;50.958;6.770;2022-11-14T07:31:30;4.40;99.90
2647;DHT22;1333;50.958;6.770;2022-11-14T07:33:55;4.50;99.90
2647;DHT22;1333;50.958;6.770;2022-11-14T07:36:21;4.60;99.90
2647;DHT22;1333;50.958;6.770;2022-11-14T07:38:47;4.70;99.90
2647;DHT22;1333;50.958;6.770;2022-11-14T07:41:14;4.80;99.90
2647;DHT22;1333;50.958;6.770;2022-11-14T07:43:41;4.90;99.90
2647;DHT22;1333;50.958;6.770;2022-11-14T07:46:11;5.00;99.90
2647;DHT22;1333;50.958;6.770;2022-11-14T07:48:37;5.10;99.90
2647;DHT22;1333;50.958;6.770;2022-11-14T07:51:09;5.20;99.90
2647;DHT22;1333;50.958;6.770;2022-11-14T07:53:35;5.30;99.90
2647;DHT22;1333;50.958;6.770;2022-11-14T07:56:03;5.30;99.90
2647;DHT22;1333;50.958;6.770;2022-11-14T07:58:29;5.40;99.90
2647;DHT22;1333;50.958;6.770;2022-11-14T08:00:55;5.50;99.90
2647;DHT22;1333;50.958;6.770;2022-11-14T08:03:20;5.50;99.90
2647;DHT22;1333;50.958;6.770;2022-11-14T08:05:46;5.60;99.90
2647;DHT22;1333;50.958;6.770;2022-11-14T08:08:11;5.70;99.90
2647;DHT22;1333;50.958;6.770;2022-11-14T08:10:37;5.80;99.90
2647;DHT22;1333;50.958;6.770;2022-11-14T08:13:04;5.80;99.90
2647;DHT22;1333;50.958;6.770;2022-11-14T08:15:30;5.90;99.90
2647;DHT22;1333;50.958;6.770;2022-11-14T08:18:00;5.90;99.90
2647;DHT22;1333;50.958;6.770;2022-11-14T08:20:27;6.00;99.90
2647;DHT22;1333;50.958;6.770;2022-11-14T08:22:53;6.10;99.90
2647;DHT22;1333;50.958;6.770;2022-11-14T08:25:25;6.10;99.90
2647;DHT22;1333;50.958;6.770;2022-11-14T08:27:52;6.10;99.90
2647;DHT22;1333;50.958;6.770;2022-11-14T08:30:17;6.10;99.90
2647;DHT22;1333;50.958;6.770;2022-11-14T08:32:43;6.20;99.90
2647;DHT22;1333;50.958;6.770;2022-11-14T08:35:08;6.20;99.90
2647;DHT22;1333;50.958;6.770;2022-11-14T08:37:34;6.30;99.90
2647;DHT22;1333;50.958;6.770;2022-11-14T08:39:59;6.30;99.90
2647;DHT22;1333;50.958;6.770;2022-11-14T08:42:25;6.30;99.90
2647;DHT22;1333;50.958;6.770;2022-11-14T08:44:50;6.40;99.90
2647;DHT22;1333;50.958;6.770;2022-11-14T08:47:16;6.40;99.90
2647;DHT22;1333;50.958;6.770;2022-11-14T08:49:41;6.50;99.90
2647;DHT22;1333;50.958;6.770;2022-11-14T08:52:07;6.50;99.90
2647;DHT22;1333;50.958;6.770;2022-11-14T08:54:32;6.50;99.90
2647;DHT22;1333;50.958;6.770;2022-11-14T08:56:58;6.60;99.90
2647;DHT22;1333;50.958;6.770;2022-11-14T08:59:23;6.60;99.90
2647;DHT22;1333;50.958;6.770;2022-11-14T09:01:49;6.60;99.90
2647;DHT22;1333;50.958;6.770;2022-11-14T09:04:15;6.70;99.90
2647;DHT22;1333;50.958;6.770;2022-11-14T09:06:41;6.70;99.90
2647;DHT22;1333;50.958;6.770;2022-11-14T09:09:06;6.80;99.90
2647;DHT22;1333;50.958;6.770;2022-11-14T09:11:32;6.80;99.90
2647;DHT22;1333;50.958;6.770;2022-11-14T09:13:57;6.80;99.90
2647;DHT22;1333;50.958;6.770;2022-11-14T09:16:23;6.80;99.90
2647;DHT22;1333;50.958;6.770;2022-11-14T09:18:49;6.80;99.90
2647;DHT22;1333;50.958;6.770;2022-11-14T09:21:14;6.80;99.90
2647;DHT22;1333;50.958;6.770;2022-11-14T09:23:40;6.90;99.90
2647;DHT22;1333;50.958;6.770;2022-11-14T09:26:07;6.90;99.90
2647;DHT22;1333;50.958;6.770;2022-11-14T09:28:33;6.90;99.90
2647;DHT22;1333;50.958;6.770;2022-11-14T09:31:04;6.90;99.90
2647;DHT22;1333;50.958;6.770;2022-11-14T09:33:31;6.90;99.90
2647;DHT22;1333;50.958;6.770;2022-11-14T09:35:58;6.90;99.90
2647;DHT22;1333;50.958;6.770;2022-11-14T09:38:24;6.90;99.90
2647;DHT22;1333;50.958;6.770;2022-11-14T09:46:33;7.00;99.90
2647;DHT22;1333;50.958;6.770;2022-11-14T09:49:01;7.10;99.90
2647;DHT22;1333;50.958;6.770;2022-11-14T09:51:32;7.10;99.90
2647;DHT22;1333;50.958;6.770;2022-11-14T09:54:15;7.10;99.90
2647;DHT22;1333;50.958;6.770;2022-11-14T09:56:43;7.20;99.90
2647;DHT22;1333;50.958;6.770;2022-11-14T09:59:10;7.30;99.90
2647;DHT22;1333;50.958;6.770;2022-11-14T10:02:00;7.30;99.90
2647;DHT22;1333;50.958;6.770;2022-11-14T10:07:47;7.30;99.90
2647;DHT22;1333;50.958;6.770;2022-11-14T10:10:32;7.50;99.90
2647;DHT22;1333;50.958;6.770;2022-11-14T10:21:38;7.90;99.90
2647;DHT22;1333;50.958;6.770;2022-11-14T10:24:30;7.80;99.90
2647;DHT22;1333;50.958;6.770;2022-11-14T10:27:18;7.80;99.90
2647;DHT22;1333;50.958;6.770;2022-11-14T10:40:47;8.20;99.90
2647;DHT22;1333;50.958;6.770;2022-11-14T10:43:31;8.20;99.90
2647;DHT22;1333;50.958;6.770;2022-11-14T10:46:05;8.20;99.90
2647;DHT22;1333;50.958;6.770;2022-11-14T10:48:41;8.30;99.90
2647;DHT22;1333;50.958;6.770;2022-11-14T10:56:48;8.10;99.90
2647;DHT22;1333;50.958;6.770;2022-11-14T10:59:14;8.00;99.90
2647;DHT22;1333;50.958;6.770;2022-11-14T11:01:42;8.00;99.90
2647;DHT22;1333;50.958;6.770;2022-11-14T11:04:29;8.10;99.90
2647;DHT22;1333;50.958;6.770;2022-11-14T11:09:32;8.30;99.90
2647;DHT22;1333;50.958;6.770;2022-11-14T11:12:20;8.40;99.90
2647;DHT22;1333;50.958;6.770;2022-11-14T11:14:47;8.40;99.90
2647;DHT22;1333;50.958;6.770;2022-11-14T11:17:14;8.40;99.90
2647;DHT22;1333;50.958;6.770;2022-11-14T11:19:41;8.50;99.90
2647;DHT22;1333;50.958;6.770;2022-11-14T11:22:35;8.60;99.90
2647;DHT22;1333;50.958;6.770;2022-11-14T11:25:02;8.60;99.90
2647;DHT22;1333;50.958;6.770;2022-11-14T11:27:46;8.70;99.90
2647;DHT22;1333;50.958;6.770;2022-11-14T11:30:19;9.10;99.90
2647;DHT22;1333;50.958;6.770;2022-11-14T11:32:47;9.80;99.90
2647;DHT22;1333;50.958;6.770;2022-11-14T11:35:15;9.90;99.90
2647;DHT22;1333;50.958;6.770;2022-11-14T11:37:45;9.70;99.90
2647;DHT22;1333;50.958;6.770;2022-11-14T11:40:17;9.40;99.90
2647;DHT22;1333;50.958;6.770;2022-11-14T11:42:59;9.40;99.90
2647;DHT22;1333;50.958;6.770;2022-11-14T11:45:29;9.20;99.90
2647;DHT22;1333;50.958;6.770;2022-11-14T11:48:15;9.10;99.90
2647;DHT22;1333;50.958;6.770;2022-11-14T11:50:41;8.90;99.90
2647;DHT22;1333;50.958;6.770;2022-11-14T11:54:13;8.80;99.90
2647;DHT22;1333;50.958;6.770;2022-11-14T11:56:10;8.80;99.90
2647;DHT22;1333;50.958;6.770;2022-11-14T11:58:55;8.80;99.90
2647;DHT22;1333;50.958;6.770;2022-11-14T12:01:23;9.00;99.90
2647;DHT22;1333;50.958;6.770;2022-11-14T12:03:51;9.10;99.90
2647;DHT22;1333;50.958;6.770;2022-11-14T12:06:19;9.20;99.90
2647;DHT22;1333;50.958;6.770;2022-11-14T12:11:40;9.50;99.90
2647;DHT22;1333;50.958;6.770;2022-11-14T12:17:20;9.90;99.90
2647;DHT22;1333;50.958;6.770;2022-11-14T12:28:18;10.60;99.90
2647;DHT22;1333;50.958;6.770;2022-11-14T12:30:48;10.30;99.90
2647;DHT22;1333;50.958;6.770;2022-11-14T12:33:20;10.30;99.90
2647;DHT22;1333;50.958;6.770;2022-11-14T12:35:59;10.60;99.90
2647;DHT22;1333;50.958;6.770;2022-11-14T12:38:31;10.60;99.90
2647;DHT22;1333;50.958;6.770;2022-11-14T12:40:59;10.40;99.90
2647;DHT22;1333;50.958;6.770;2022-11-14T12:43:34;10.90;99.90
2647;DHT22;1333;50.958;6.770;2022-11-14T12:46:02;11.40;99.90
2647;DHT22;1333;50.958;6.770;2022-11-14T12:48:32;11.30;99.90
2647;DHT22;1333;50.958;6.770;2022-11-14T12:50:59;10.90;99.90
2647;DHT22;1333;50.958;6.770;2022-11-14T13:07:59;8.80;99.90
2647;DHT22;1333;50.958;6.770;2022-11-14T13:10:35;8.80;99.90
2647;DHT22;1333;50.958;6.770;2022-11-14T13:13:12;8.80;99.90
2647;DHT22;1333;50.958;6.770;2022-11-14T13:15:59;8.70;99.90
2647;DHT22;1333;50.958;6.770;2022-11-14T13:18:50;8.70;99.90
2647;DHT22;1333;50.958;6.770;2022-11-14T13:21:35;8.60;99.90
2647;DHT22;1333;50.958;6.770;2022-11-14T13:24:11;8.60;99.90
2647;DHT22;1333;50.958;6.770;2022-11-14T13:26:45;8.60;99.90
2647;DHT22;1333;50.958;6.770;2022-11-14T13:32:10;8.50;99.90
2647;DHT22;1333;50.958;6.770;2022-11-14T13:35:02;8.50;99.90
2647;DHT22;1333;50.958;6.770;2022-11-14T13:40:12;8.40;99.90
2647;DHT22;1333;50.958;6.770;2022-11-14T13:45:47;8.40;99.90
2647;DHT22;1333;50.958;6.770;2022-11-14T13:48:43;8.40;99.90
2647;DHT22;1333;50.958;6.770;2022-11-14T13:51:15;8.40;99.90
2647;DHT22;1333;50.958;6.770;2022-11-14T13:53:41;8.40;99.90
2647;DHT22;1333;50.958;6.770;2022-11-14T14:04:22;8.60;99.90
2647;DHT22;1333;50.958;6.770;2022-11-14T14:26:24;8.80;99.90
2647;DHT22;1333;50.958;6.770;2022-11-14T14:29:44;8.70;99.90
2647;DHT22;1333;50.958;6.770;2022-11-14T14:31:46;8.70;99.90
2647;DHT22;1333;50.958;6.770;2022-11-14T14:34:23;8.60;99.90
2647;DHT22;1333;50.958;6.770;2022-11-14T14:36:52;8.70;99.90
2647;DHT22;1333;50.958;6.770;2022-11-14T14:39:21;8.60;99.90
2647;DHT22;1333;50.958;6.770;2022-11-14T14:41:47;8.70;99.90
2647;DHT22;1333;50.958;6.770;2022-11-14T14:44:37;8.60;99.90
2647;DHT22;1333;50.958;6.770;2022-11-14T14:49:52;8.60;99.90
2647;DHT22;1333;50.958;6.770;2022-11-14T14:52:21;8.60;99.90
2647;DHT22;1333;50.958;6.770;2022-11-14T14:54:53;8.60;99.90
2647;DHT22;1333;50.958;6.770;2022-11-14T14:57:19;8.60;99.90
2647;DHT22;1333;50.958;6.770;2022-11-14T14:59:45;8.50;99.90
2647;DHT22;1333;50.958;6.770;2022-11-14T15:02:15;8.60;99.90
2647;DHT22;1333;50.958;6.770;2022-11-14T15:04:41;8.60;99.90
2647;DHT22;1333;50.958;6.770;2022-11-14T15:07:19;8.60;99.90
2647;DHT22;1333;50.958;6.770;2022-11-14T15:09:56;8.60;99.90
2647;DHT22;1333;50.958;6.770;2022-11-14T15:12:24;8.60;99.90
2647;DHT22;1333;50.958;6.770;2022-11-14T15:14:54;8.60;99.90
2647;DHT22;1333;50.958;6.770;2022-11-14T15:17:21;8.70;99.90
2647;DHT22;1333;50.958;6.770;2022-11-14T15:19:49;8.70;99.90
2647;DHT22;1333;50.958;6.770;2022-11-14T15:24:42;8.70;99.90
2647;DHT22;1333;50.958;6.770;2022-11-14T15:27:16;8.70;99.90
2647;DHT22;1333;50.958;6.770;2022-11-14T15:29:47;8.60;99.90
2647;DHT22;1333;50.958;6.770;2022-11-14T15:32:21;8.70;99.90
2647;DHT22;1333;50.958;6.770;2022-11-14T15:35:22;8.60;99.90
2647;DHT22;1333;50.958;6.770;2022-11-14T15:38:03;8.60;99.90
2647;DHT22;1333;50.958;6.770;2022-11-14T15:40:30;8.60;99.90
2647;DHT22;1333;50.958;6.770;2022-11-14T15:42:56;8.60;99.90
2647;DHT22;1333;50.958;6.770;2022-11-14T15:45:26;8.60;99.90
2647;DHT22;1333;50.958;6.770;2022-11-14T15:47:59;8.60;99.90
2647;DHT22;1333;50.958;6.770;2022-11-14T15:50:32;8.60;99.90
2647;DHT22;1333;50.958;6.770;2022-11-14T15:52:59;8.60;99.90
2647;DHT22;1333;50.958;6.770;2022-11-14T15:55:25;8.60;99.90
2647;DHT22;1333;50.958;6.770;2022-11-14T15:57:51;8.60;99.90
2647;DHT22;1333;50.958;6.770;2022-11-14T16:00:17;8.60;99.90
2647;DHT22;1333;50.958;6.770;2022-11-14T16:02:53;8.60;99.90
2647;DHT22;1333;50.958;6.770;2022-11-14T16:05:25;8.60;99.90
2647;DHT22;1333;50.958;6.770;2022-11-14T16:07:52;8.60;99.90
2647;DHT22;1333;50.958;6.770;2022-11-14T16:10:27;8.60;99.90
2647;DHT22;1333;50.958;6.770;2022-11-14T16:12:52;8.70;99.90
2647;DHT22;1333;50.958;6.770;2022-11-14T16:15:19;8.70;99.90
2647;DHT22;1333;50.958;6.770;2022-11-14T16:17:47;8.70;99.90
2647;DHT22;1333;50.958;6.770;2022-11-14T16:20:21;8.70;99.90
2647;DHT22;1333;50.958;6.770;2022-11-14T16:22:48;8.70;99.90
2647;DHT22;1333;50.958;6.770;2022-11-14T16:25:19;8.70;99.90
2647;DHT22;1333;50.958;6.770;2022-11-14T16:27:46;8.70;99.90
2647;DHT22;1333;50.958;6.770;2022-11-14T16:30:12;8.70;99.90
2647;DHT22;1333;50.958;6.770;2022-11-14T16:32:39;8.70;99.90
2647;DHT22;1333;50.958;6.770;2022-11-14T16:35:11;8.60;99.90
2647;DHT22;1333;50.958;6.770;2022-11-14T16:37:37;8.70;99.90
2647;DHT22;1333;50.958;6.770;2022-11-14T16:40:03;8.70;99.90
2647;DHT22;1333;50.958;6.770;2022-11-14T16:42:28;8.70;99.90
2647;DHT22;1333;50.958;6.770;2022-11-14T16:44:59;8.70;99.90
2647;DHT22;1333;50.958;6.770;2022-11-14T16:47:26;8.70;99.90
2647;DHT22;1333;50.958;6.770;2022-11-14T16:49:51;8.70;99.90
2647;DHT22;1333;50.958;6.770;2022-11-14T16:52:17;8.70;99.90
2647;DHT22;1333;50.958;6.770;2022-11-14T16:54:44;8.70;99.90
2647;DHT22;1333;50.958;6.770;2022-11-14T16:57:09;8.70;99.90
2647;DHT22;1333;50.958;6.770;2022-11-14T16:59:35;8.80;99.90
2647;DHT22;1333;50.958;6.770;2022-11-14T17:02:00;8.80;99.90
2647;DHT22;1333;50.958;6.770;2022-11-14T17:04:26;8.70;99.90
2647;DHT22;1333;50.958;6.770;2022-11-14T17:06:52;8.80;99.90
2647;DHT22;1333;50.958;6.770;2022-11-14T17:09:17;8.80;99.90
2647;DHT22;1333;50.958;6.770;2022-11-14T17:11:43;8.80;99.90
2647;DHT22;1333;50.958;6.770;2022-11-14T17:14:09;8.80;99.90
2647;DHT22;1333;50.958;6.770;2022-11-14T17:16:35;8.80;99.90
2647;DHT22;1333;50.958;6.770;2022-11-14T17:19:01;8.80;99.90
2647;DHT22;1333;50.958;6.770;2022-11-14T17:21:26;8.80;99.90
2647;DHT22;1333;50.958;6.770;2022-11-14T17:23:59;8.80;99.90
2647;DHT22;1333;50.958;6.770;2022-11-14T17:26:28;8.80;99.90
2647;DHT22;1333;50.958;6.770;2022-11-14T17:28:54;8.80;99.90
2647;DHT22;1333;50.958;6.770;2022-11-14T17:31:20;8.80;99.90
2647;DHT22;1333;50.958;6.770;2022-11-14T17:33:53;8.80;99.90
2647;DHT22;1333;50.958;6.770;2022-11-14T17:36:19;8.80;99.90
2647;DHT22;1333;50.958;6.770;2022-11-14T17:38:45;8.80;99.90
2647;DHT22;1333;50.958;6.770;2022-11-14T17:41:11;8.80;99.90
2647;DHT22;1333;50.958;6.770;2022-11-14T17:43:36;8.80;99.90
2647;DHT22;1333;50.958;6.770;2022-11-14T17:46:03;8.80;99.90
2647;DHT22;1333;50.958;6.770;2022-11-14T17:48:29;8.80;99.90
2647;DHT22;1333;50.958;6.770;2022-11-14T17:50:55;8.70;99.90
2647;DHT22;1333;50.958;6.770;2022-11-14T17:53:21;8.70;99.90
2647;DHT22;1333;50.958;6.770;2022-11-14T17:55:53;8.70;99.90
2647;DHT22;1333;50.958;6.770;2022-11-14T17:58:20;8.70;99.90
2647;DHT22;1333;50.958;6.770;2022-11-14T18:00:45;8.60;99.90
2647;DHT22;1333;50.958;6.770;2022-11-14T18:03:11;8.50;99.90
2647;DHT22;1333;50.958;6.770;2022-11-14T18:05:36;8.50;99.90
2647;DHT22;1333;50.958;6.770;2022-11-14T18:08:01;8.50;99.90
2647;DHT22;1333;50.958;6.770;2022-11-14T18:10:27;8.50;99.90
2647;DHT22;1333;50.958;6.770;2022-11-14T18:12:52;8.50;99.90
2647;DHT22;1333;50.958;6.770;2022-11-14T18:15:18;8.40;99.90